sensor_id;sensor_type;location;lat;lon;timestamp;pressure;altitude;pressure_sealevel;temperature;humidity
11448;BME280;43755;49.736;8.734;2023-05-10T00:00:16;97148.25;;;12.67;100.00
11448;BME280;43755;49.736;8.734;2023-05-10T00:02:18;97147.13;;;12.71;100.00
11448;BME280;43755;49.736;8.734;2023-05-10T00:04:20;97158.47;;;12.73;100.00
11448;BME280;43755;49.736;8.734;2023-05-10T00:06:21;97160.97;;;12.62;100.00
11448;BME280;43755;49.736;8.734;2023-05-10T00:08:22;97155.50;;;12.51;100.00
11448;BME280;43755;49.736;8.734;2023-05-10T00:10:24;97158.38;;;12.48;100.00
11448;BME280;43755;49.736;8.734;2023-05-10T00:12:25;97156.56;;;12.48;100.00
11448;BME280;43755;49.736;8.734;2023-05-10T00:14:27;97163.66;;;12.48;100.00
11448;BME280;43755;49.736;8.734;2023-05-10T00:16:28;97162.13;;;12.44;100.00
11448;BME280;43755;49.736;8.734;2023-05-10T00:18:31;97155.88;;;12.45;100.00
11448;BME280;43755;49.736;8.734;2023-05-10T00:20:32;97160.47;;;12.43;100.00
11448;BME280;43755;49.736;8.734;2023-05-10T00:22:34;97164.31;;;12.37;100.00
11448;BME280;43755;49.736;8.734;2023-05-10T00:24:35;97155.81;;;12.32;100.00
11448;BME280;43755;49.736;8.734;2023-05-10T00:26:37;97163.59;;;12.35;100.00
11448;BME280;43755;49.736;8.734;2023-05-10T00:28:38;97160.09;;;12.35;100.00
11448;BME280;43755;49.736;8.734;2023-05-10T00:30:39;97161.97;;;12.32;100.00
11448;BME280;43755;49.736;8.734;2023-05-10T00:32:41;97166.78;;;12.26;100.00
11448;BME280;43755;49.736;8.734;2023-05-10T00:34:44;97158.84;;;12.26;100.00
11448;BME280;43755;49.736;8.734;2023-05-10T00:36:46;97159.31;;;12.32;100.00
11448;BME280;43755;49.736;8.734;2023-05-10T00:38:47;97157.13;;;12.39;100.00
11448;BME280;43755;49.736;8.734;2023-05-10T00:40:48;97174.84;;;12.39;100.00
11448;BME280;43755;49.736;8.734;2023-05-10T00:42:50;97170.84;;;12.46;100.00
11448;BME280;43755;49.736;8.734;2023-05-10T00:44:51;97172.28;;;12.37;100.00
11448;BME280;43755;49.736;8.734;2023-05-10T00:46:53;97169.53;;;12.39;100.00
11448;BME280;43755;49.736;8.734;2023-05-10T00:48:54;97162.53;;;12.38;100.00
11448;BME280;43755;49.736;8.734;2023-05-10T00:50:57;97165.47;;;12.33;100.00
11448;BME280;43755;49.736;8.734;2023-05-10T00:52:59;97180.25;;;12.23;100.00
11448;BME280;43755;49.736;8.734;2023-05-10T00:55:01;97168.50;;;12.27;100.00
11448;BME280;43755;49.736;8.734;2023-05-10T00:57:03;97174.75;;;12.26;100.00
11448;BME280;43755;49.736;8.734;2023-05-10T00:59:05;97174.56;;;12.29;100.00
11448;BME280;43755;49.736;8.734;2023-05-10T01:01:06;97172.09;;;12.26;100.00
11448;BME280;43755;49.736;8.734;2023-05-10T01:03:09;97177.53;;;12.24;100.00
11448;BME280;43755;49.736;8.734;2023-05-10T01:05:11;97175.59;;;12.26;100.00
11448;BME280;43755;49.736;8.734;2023-05-10T01:07:14;97179.31;;;12.24;100.00
11448;BME280;43755;49.736;8.734;2023-05-10T01:09:16;97176.56;;;12.25;100.00
11448;BME280;43755;49.736;8.734;2023-05-10T01:11:18;97175.34;;;12.31;100.00
11448;BME280;43755;49.736;8.734;2023-05-10T01:13:30;97179.59;;;12.34;100.00
11448;BME280;43755;49.736;8.734;2023-05-10T01:15:32;97174.28;;;12.34;100.00
11448;BME280;43755;49.736;8.734;2023-05-10T01:17:35;97184.25;;;12.30;100.00
11448;BME280;43755;49.736;8.734;2023-05-10T01:19:38;97177.88;;;12.32;100.00
11448;BME280;43755;49.736;8.734;2023-05-10T01:21:48;97178.00;;;12.31;100.00
11448;BME280;43755;49.736;8.734;2023-05-10T01:24:11;97176.47;;;12.27;100.00
11448;BME280;43755;49.736;8.734;2023-05-10T01:26:33;97181.84;;;12.25;100.00
11448;BME280;43755;49.736;8.734;2023-05-10T01:29:11;97186.59;;;12.20;100.00
11448;BME280;43755;49.736;8.734;2023-05-10T01:33:59;97180.44;;;12.20;100.00
11448;BME280;43755;49.736;8.734;2023-05-10T01:36:08;97188.59;;;12.17;100.00
11448;BME280;43755;49.736;8.734;2023-05-10T01:38:17;97189.38;;;12.19;100.00
11448;BME280;43755;49.736;8.734;2023-05-10T01:40:23;97197.50;;;12.16;100.00
11448;BME280;43755;49.736;8.734;2023-05-10T01:42:33;97188.59;;;12.17;100.00
11448;BME280;43755;49.736;8.734;2023-05-10T01:44:41;97197.69;;;12.13;100.00
11448;BME280;43755;49.736;8.734;2023-05-10T01:46:46;97194.66;;;12.19;100.00
11448;BME280;43755;49.736;8.734;2023-05-10T01:48:54;97197.19;;;12.20;100.00
11448;BME280;43755;49.736;8.734;2023-05-10T01:50:58;97199.19;;;12.17;100.00
11448;BME280;43755;49.736;8.734;2023-05-10T01:53:01;97190.69;;;12.12;100.00
11448;BME280;43755;49.736;8.734;2023-05-10T01:55:06;97202.22;;;12.11;100.00
11448;BME280;43755;49.736;8.734;2023-05-10T01:57:09;97200.06;;;12.17;100.00
11448;BME280;43755;49.736;8.734;2023-05-10T01:59:17;97190.31;;;12.18;100.00
11448;BME280;43755;49.736;8.734;2023-05-10T02:01:20;97193.34;;;12.12;100.00
11448;BME280;43755;49.736;8.734;2023-05-10T02:03:24;97203.00;;;12.13;100.00
11448;BME280;43755;49.736;8.734;2023-05-10T02:05:26;97206.03;;;12.07;100.00
11448;BME280;43755;49.736;8.734;2023-05-10T02:07:30;97204.31;;;12.06;100.00
11448;BME280;43755;49.736;8.734;2023-05-10T02:09:34;97207.72;;;12.08;100.00
11448;BME280;43755;49.736;8.734;2023-05-10T02:11:37;97213.97;;;12.07;100.00
11448;BME280;43755;49.736;8.734;2023-05-10T02:13:39;97208.84;;;12.04;100.00
11448;BME280;43755;49.736;8.734;2023-05-10T02:15:42;97210.72;;;12.02;100.00
11448;BME280;43755;49.736;8.734;2023-05-10T02:17:46;97210.72;;;12.02;100.00
11448;BME280;43755;49.736;8.734;2023-05-10T02:19:48;97220.97;;;12.08;100.00
11448;BME280;43755;49.736;8.734;2023-05-10T02:21:50;97213.22;;;12.05;100.00
11448;BME280;43755;49.736;8.734;2023-05-10T02:23:54;97218.13;;;11.97;100.00
11448;BME280;43755;49.736;8.734;2023-05-10T02:25:56;97212.16;;;11.93;100.00
11448;BME280;43755;49.736;8.734;2023-05-10T02:28:01;97221.44;;;12.00;100.00
11448;BME280;43755;49.736;8.734;2023-05-10T02:30:05;97214.97;;;11.90;100.00
11448;BME280;43755;49.736;8.734;2023-05-10T02:32:08;97223.28;;;11.84;100.00
11448;BME280;43755;49.736;8.734;2023-05-10T02:34:11;97218.19;;;11.81;100.00
11448;BME280;43755;49.736;8.734;2023-05-10T02:36:13;97223.03;;;11.88;100.00
11448;BME280;43755;49.736;8.734;2023-05-10T02:38:17;97219.16;;;11.94;100.00
11448;BME280;43755;49.736;8.734;2023-05-10T02:40:22;97211.69;;;12.01;100.00
11448;BME280;43755;49.736;8.734;2023-05-10T02:42:26;97213.50;;;12.00;100.00
11448;BME280;43755;49.736;8.734;2023-05-10T02:44:29;97216.50;;;12.08;100.00
11448;BME280;43755;49.736;8.734;2023-05-10T02:46:31;97221.66;;;12.11;100.00
11448;BME280;43755;49.736;8.734;2023-05-10T02:48:32;97217.19;;;12.12;100.00
11448;BME280;43755;49.736;8.734;2023-05-10T02:50:35;97205.44;;;12.02;100.00
11448;BME280;43755;49.736;8.734;2023-05-10T02:52:40;97212.06;;;11.95;100.00
11448;BME280;43755;49.736;8.734;2023-05-10T02:54:45;97214.81;;;11.93;100.00
11448;BME280;43755;49.736;8.734;2023-05-10T02:56:51;97210.72;;;11.87;100.00
11448;BME280;43755;49.736;8.734;2023-05-10T02:58:54;97210.53;;;11.76;100.00
11448;BME280;43755;49.736;8.734;2023-05-10T03:00:56;97215.34;;;11.84;100.00
11448;BME280;43755;49.736;8.734;2023-05-10T03:02:57;97219.09;;;11.96;100.00
11448;BME280;43755;49.736;8.734;2023-05-10T03:04:59;97219.09;;;11.96;100.00
11448;BME280;43755;49.736;8.734;2023-05-10T03:07:01;97215.56;;;11.95;100.00
11448;BME280;43755;49.736;8.734;2023-05-10T03:09:03;97218.22;;;11.95;100.00
11448;BME280;43755;49.736;8.734;2023-05-10T03:11:16;97211.38;;;11.91;100.00
11448;BME280;43755;49.736;8.734;2023-05-10T03:13:29;97211.59;;;11.88;100.00
11448;BME280;43755;49.736;8.734;2023-05-10T03:15:42;97214.59;;;11.96;100.00
11448;BME280;43755;49.736;8.734;2023-05-10T03:17:54;97223.41;;;11.97;100.00
11448;BME280;43755;49.736;8.734;2023-05-10T03:19:58;97221.44;;;12.00;100.00
11448;BME280;43755;49.736;8.734;2023-05-10T03:22:04;97224.38;;;11.96;100.00
11448;BME280;43755;49.736;8.734;2023-05-10T03:24:12;97229.84;;;11.93;100.00
11448;BME280;43755;49.736;8.734;2023-05-10T03:26:17;97229.84;;;11.93;100.00
11448;BME280;43755;49.736;8.734;2023-05-10T03:28:26;97233.53;;;11.90;100.00
11448;BME280;43755;49.736;8.734;2023-05-10T03:30:28;97232.59;;;11.91;100.00
11448;BME280;43755;49.736;8.734;2023-05-10T03:32:30;97231.72;;;11.90;100.00
11448;BME280;43755;49.736;8.734;2023-05-10T03:34:41;97225.56;;;11.90;100.00
11448;BME280;43755;49.736;8.734;2023-05-10T03:36:42;97236.38;;;11.87;100.00
11448;BME280;43755;49.736;8.734;2023-05-10T03:38:43;97235.06;;;11.94;100.00
11448;BME280;43755;49.736;8.734;2023-05-10T03:40:45;97235.16;;;11.93;100.00
11448;BME280;43755;49.736;8.734;2023-05-10T03:42:46;97223.69;;;11.92;100.00
11448;BME280;43755;49.736;8.734;2023-05-10T03:44:49;97225.22;;;11.96;100.00
11448;BME280;43755;49.736;8.734;2023-05-10T03:46:50;97228.72;;;11.97;100.00
11448;BME280;43755;49.736;8.734;2023-05-10T03:48:52;97239.88;;;12.02;100.00
11448;BME280;43755;49.736;8.734;2023-05-10T03:50:53;97237.53;;;11.97;100.00
11448;BME280;43755;49.736;8.734;2023-05-10T03:52:55;97244.53;;;11.98;100.00
11448;BME280;43755;49.736;8.734;2023-05-10T03:54:57;97236.28;;;12.03;100.00
11448;BME280;43755;49.736;8.734;2023-05-10T03:56:58;97229.13;;;12.05;100.00
11448;BME280;43755;49.736;8.734;2023-05-10T03:59:00;97236.22;;;12.04;100.00
11448;BME280;43755;49.736;8.734;2023-05-10T04:01:03;97235.56;;;12.01;100.00
11448;BME280;43755;49.736;8.734;2023-05-10T04:03:04;97244.53;;;11.98;100.00
11448;BME280;43755;49.736;8.734;2023-05-10T04:05:06;97237.94;;;12.05;100.00
11448;BME280;43755;49.736;8.734;2023-05-10T04:07:08;97232.06;;;12.00;100.00
11448;BME280;43755;49.736;8.734;2023-05-10T04:09:10;97231.56;;;11.94;100.00
11448;BME280;43755;49.736;8.734;2023-05-10T04:11:11;97236.66;;;11.97;100.00
11448;BME280;43755;49.736;8.734;2023-05-10T04:13:14;97231.19;;;12.00;100.00
11448;BME280;43755;49.736;8.734;2023-05-10T04:15:19;97235.16;;;11.93;100.00
11448;BME280;43755;49.736;8.734;2023-05-10T04:17:21;97238.38;;;11.98;100.00
11448;BME280;43755;49.736;8.734;2023-05-10T04:19:23;97238.28;;;11.99;100.00
11448;BME280;43755;49.736;8.734;2023-05-10T04:21:24;97239.53;;;11.94;100.00
11448;BME280;43755;49.736;8.734;2023-05-10T04:23:26;97236.13;;;12.06;100.00
11448;BME280;43755;49.736;8.734;2023-05-10T04:25:28;97241.03;;;11.98;100.00
11448;BME280;43755;49.736;8.734;2023-05-10T04:27:29;97247.09;;;12.00;100.00
11448;BME280;43755;49.736;8.734;2023-05-10T04:29:31;97246.81;;;12.04;100.00
11448;BME280;43755;49.736;8.734;2023-05-10T04:31:32;97251.47;;;12.01;100.00
11448;BME280;43755;49.736;8.734;2023-05-10T04:33:36;97254.84;;;12.03;100.00
11448;BME280;43755;49.736;8.734;2023-05-10T04:35:37;97251.06;;;11.93;100.00
11448;BME280;43755;49.736;8.734;2023-05-10T04:37:40;97259.00;;;11.93;100.00
11448;BME280;43755;49.736;8.734;2023-05-10T04:39:41;97256.00;;;11.99;100.00
11448;BME280;43755;49.736;8.734;2023-05-10T04:41:42;97264.53;;;12.04;100.00
11448;BME280;43755;49.736;8.734;2023-05-10T04:43:44;97267.38;;;12.01;100.00
11448;BME280;43755;49.736;8.734;2023-05-10T04:45:46;97267.00;;;12.07;100.00
11448;BME280;43755;49.736;8.734;2023-05-10T04:47:47;97258.94;;;12.08;100.00
11448;BME280;43755;49.736;8.734;2023-05-10T04:49:50;97267.56;;;12.12;100.00
11448;BME280;43755;49.736;8.734;2023-05-10T04:51:51;97274.09;;;12.06;100.00
11448;BME280;43755;49.736;8.734;2023-05-10T04:53:52;97274.19;;;12.05;100.00
11448;BME280;43755;49.736;8.734;2023-05-10T04:55:54;97268.22;;;12.01;100.00
11448;BME280;43755;49.736;8.734;2023-05-10T04:57:55;97276.84;;;12.05;100.00
11448;BME280;43755;49.736;8.734;2023-05-10T04:59:57;97277.47;;;11.94;100.00
11448;BME280;43755;49.736;8.734;2023-05-10T05:01:58;97281.00;;;11.95;100.00
11448;BME280;43755;49.736;8.734;2023-05-10T05:04:00;97283.34;;;11.99;100.00
11448;BME280;43755;49.736;8.734;2023-05-10T05:06:03;97282.09;;;11.90;100.00
11448;BME280;43755;49.736;8.734;2023-05-10T05:08:04;97290.03;;;11.90;100.00
11448;BME280;43755;49.736;8.734;2023-05-10T05:10:07;97288.75;;;11.98;100.00
11448;BME280;43755;49.736;8.734;2023-05-10T05:12:09;97290.38;;;12.00;100.00
11448;BME280;43755;49.736;8.734;2023-05-10T05:14:14;97297.47;;;12.00;100.00
11448;BME280;43755;49.736;8.734;2023-05-10T05:16:15;97291.03;;;12.04;100.00
11448;BME280;43755;49.736;8.734;2023-05-10T05:18:16;97298.50;;;11.97;100.00
11448;BME280;43755;49.736;8.734;2023-05-10T05:20:18;97301.25;;;11.96;100.00
11448;BME280;43755;49.736;8.734;2023-05-10T05:22:21;97301.13;;;11.97;100.00
11448;BME280;43755;49.736;8.734;2023-05-10T05:24:27;97297.63;;;11.97;100.00
11448;BME280;43755;49.736;8.734;2023-05-10T05:26:28;97307.22;;;11.99;100.00
11448;BME280;43755;49.736;8.734;2023-05-10T05:28:30;97308.94;;;12.00;100.00
11448;BME280;43755;49.736;8.734;2023-05-10T05:30:33;97307.28;;;11.98;100.00
11448;BME280;43755;49.736;8.734;2023-05-10T05:32:34;97306.28;;;12.00;100.00
11448;BME280;43755;49.736;8.734;2023-05-10T05:34:35;97293.03;;;12.00;100.00
11448;BME280;43755;49.736;8.734;2023-05-10T05:36:37;97309.00;;;11.99;100.00
11448;BME280;43755;49.736;8.734;2023-05-10T05:38:40;97298.81;;;12.07;100.00
11448;BME280;43755;49.736;8.734;2023-05-10T05:40:42;97299.47;;;12.10;100.00
11448;BME280;43755;49.736;8.734;2023-05-10T05:42:43;97309.78;;;12.15;100.00
11448;BME280;43755;49.736;8.734;2023-05-10T05:44:44;97307.06;;;12.16;100.00
11448;BME280;43755;49.736;8.734;2023-05-10T05:46:46;97311.91;;;12.24;100.00
11448;BME280;43755;49.736;8.734;2023-05-10T05:48:47;97314.94;;;12.32;100.00
11448;BME280;43755;49.736;8.734;2023-05-10T05:50:49;97308.13;;;12.28;100.00
11448;BME280;43755;49.736;8.734;2023-05-10T05:52:50;97317.22;;;12.38;100.00
11448;BME280;43755;49.736;8.734;2023-05-10T05:54:53;97321.78;;;12.36;100.00
11448;BME280;43755;49.736;8.734;2023-05-10T05:56:54;97319.63;;;12.43;100.00
11448;BME280;43755;49.736;8.734;2023-05-10T05:58:56;97313.16;;;12.47;100.00
11448;BME280;43755;49.736;8.734;2023-05-10T06:00:58;97317.78;;;12.43;100.00
11448;BME280;43755;49.736;8.734;2023-05-10T06:02:59;97318.38;;;12.48;100.00
11448;BME280;43755;49.736;8.734;2023-05-10T06:05:00;97321.41;;;12.56;100.00
11448;BME280;43755;49.736;8.734;2023-05-10T06:07:02;97328.03;;;12.63;100.00
11448;BME280;43755;49.736;8.734;2023-05-10T06:09:03;97332.38;;;12.50;100.00
11448;BME280;43755;49.736;8.734;2023-05-10T06:11:06;97342.34;;;12.61;100.00
11448;BME280;43755;49.736;8.734;2023-05-10T06:13:07;97336.00;;;12.63;100.00
11448;BME280;43755;49.736;8.734;2023-05-10T06:15:10;97333.25;;;12.79;100.00
11448;BME280;43755;49.736;8.734;2023-05-10T06:17:11;97341.69;;;12.86;100.00
11448;BME280;43755;49.736;8.734;2023-05-10T06:19:13;97343.78;;;12.95;100.00
11448;BME280;43755;49.736;8.734;2023-05-10T06:21:14;97345.97;;;12.88;100.00
11448;BME280;43755;49.736;8.734;2023-05-10T06:23:16;97342.53;;;13.00;100.00
11448;BME280;43755;49.736;8.734;2023-05-10T06:25:17;97349.19;;;12.93;100.00
11448;BME280;43755;49.736;8.734;2023-05-10T06:27:20;97354.97;;;12.86;100.00
11448;BME280;43755;49.736;8.734;2023-05-10T06:29:22;97345.88;;;12.90;100.00
11448;BME280;43755;49.736;8.734;2023-05-10T06:31:23;97355.44;;;12.92;100.00
11448;BME280;43755;49.736;8.734;2023-05-10T06:33:25;97357.22;;;12.92;100.00
11448;BME280;43755;49.736;8.734;2023-05-10T06:35:26;97356.97;;;12.82;100.00
11448;BME280;43755;49.736;8.734;2023-05-10T06:37:27;97351.16;;;12.76;100.00
11448;BME280;43755;49.736;8.734;2023-05-10T06:39:29;97352.31;;;12.86;100.00
11448;BME280;43755;49.736;8.734;2023-05-10T06:41:30;97362.16;;;12.98;100.00
11448;BME280;43755;49.736;8.734;2023-05-10T06:43:33;97358.59;;;13.13;100.00
11448;BME280;43755;49.736;8.734;2023-05-10T06:45:34;97352.13;;;13.17;100.00
11448;BME280;43755;49.736;8.734;2023-05-10T06:47:36;97363.69;;;13.16;100.00
11448;BME280;43755;49.736;8.734;2023-05-10T06:49:37;97358.19;;;13.05;100.00
11448;BME280;43755;49.736;8.734;2023-05-10T06:51:40;97365.19;;;13.20;100.00
11448;BME280;43755;49.736;8.734;2023-05-10T06:53:41;97358.84;;;13.23;100.00
11448;BME280;43755;49.736;8.734;2023-05-10T06:55:42;97364.16;;;13.23;100.00
11448;BME280;43755;49.736;8.734;2023-05-10T06:57:44;97370.72;;;13.17;100.00
11448;BME280;43755;49.736;8.734;2023-05-10T06:59:47;97364.63;;;13.15;100.00
11448;BME280;43755;49.736;8.734;2023-05-10T07:01:48;97364.63;;;13.29;100.00
11448;BME280;43755;49.736;8.734;2023-05-10T07:03:50;97370.13;;;13.40;100.00
11448;BME280;43755;49.736;8.734;2023-05-10T07:05:51;97363.84;;;13.41;100.00
11448;BME280;43755;49.736;8.734;2023-05-10T07:07:52;97366.97;;;13.48;100.00
11448;BME280;43755;49.736;8.734;2023-05-10T07:09:54;97373.00;;;13.64;100.00
11448;BME280;43755;49.736;8.734;2023-05-10T07:11:56;97375.34;;;13.69;100.00
11448;BME280;43755;49.736;8.734;2023-05-10T07:13:58;97375.72;;;13.77;100.00
11448;BME280;43755;49.736;8.734;2023-05-10T07:16:01;97376.28;;;13.68;100.00
11448;BME280;43755;49.736;8.734;2023-05-10T07:18:03;97376.59;;;13.36;100.00
11448;BME280;43755;49.736;8.734;2023-05-10T07:20:07;97377.06;;;13.29;100.00
11448;BME280;43755;49.736;8.734;2023-05-10T07:22:09;97383.78;;;13.48;100.00
11448;BME280;43755;49.736;8.734;2023-05-10T07:24:10;97375.59;;;13.51;100.00
11448;BME280;43755;49.736;8.734;2023-05-10T07:26:12;97380.31;;;13.61;100.00
11448;BME280;43755;49.736;8.734;2023-05-10T07:28:15;97385.97;;;13.69;100.00
11448;BME280;43755;49.736;8.734;2023-05-10T07:30:17;97379.72;;;13.70;100.00
11448;BME280;43755;49.736;8.734;2023-05-10T07:32:20;97387.53;;;13.59;100.00
11448;BME280;43755;49.736;8.734;2023-05-10T07:34:21;97390.66;;;13.65;100.00
11448;BME280;43755;49.736;8.734;2023-05-10T07:36:23;97381.44;;;13.71;100.00
11448;BME280;43755;49.736;8.734;2023-05-10T07:38:24;97386.03;;;13.81;100.00
11448;BME280;43755;49.736;8.734;2023-05-10T07:40:25;97393.41;;;13.64;100.00
11448;BME280;43755;49.736;8.734;2023-05-10T07:42:27;97383.69;;;13.77;100.00
11448;BME280;43755;49.736;8.734;2023-05-10T07:44:28;97393.69;;;13.86;100.00
11448;BME280;43755;49.736;8.734;2023-05-10T07:46:30;97389.19;;;13.74;100.00
11448;BME280;43755;49.736;8.734;2023-05-10T07:48:32;97392.13;;;13.83;100.00
11448;BME280;43755;49.736;8.734;2023-05-10T07:50:34;97388.88;;;13.78;100.00
11448;BME280;43755;49.736;8.734;2023-05-10T07:52:35;97390.97;;;13.87;100.00
11448;BME280;43755;49.736;8.734;2023-05-10T07:54:37;97386.41;;;14.02;100.00
11448;BME280;43755;49.736;8.734;2023-05-10T07:56:38;97387.63;;;14.11;100.00
11448;BME280;43755;49.736;8.734;2023-05-10T07:58:44;97396.66;;;14.08;100.00
11448;BME280;43755;49.736;8.734;2023-05-10T08:00:46;97394.47;;;13.88;100.00
11448;BME280;43755;49.736;8.734;2023-05-10T08:02:48;97397.28;;;13.99;100.00
11448;BME280;43755;49.736;8.734;2023-05-10T08:04:51;97394.22;;;14.05;100.00
11448;BME280;43755;49.736;8.734;2023-05-10T08:06:52;97395.25;;;14.03;100.00
11448;BME280;43755;49.736;8.734;2023-05-10T08:08:54;97400.97;;;13.70;100.00
11448;BME280;43755;49.736;8.734;2023-05-10T08:10:55;97406.06;;;13.60;100.00
11448;BME280;43755;49.736;8.734;2023-05-10T08:12:57;97406.22;;;13.57;100.00
11448;BME280;43755;49.736;8.734;2023-05-10T08:14:58;97408.88;;;13.57;100.00
11448;BME280;43755;49.736;8.734;2023-05-10T08:17:00;97412.59;;;13.55;100.00
11448;BME280;43755;49.736;8.734;2023-05-10T08:19:01;97412.00;;;13.64;100.00
11448;BME280;43755;49.736;8.734;2023-05-10T08:21:04;97411.53;;;13.71;100.00
11448;BME280;43755;49.736;8.734;2023-05-10T08:23:06;97402.38;;;13.75;100.00
11448;BME280;43755;49.736;8.734;2023-05-10T08:25:07;97403.03;;;13.79;100.00
11448;BME280;43755;49.736;8.734;2023-05-10T08:27:09;97406.94;;;13.73;100.00
11448;BME280;43755;49.736;8.734;2023-05-10T08:29:10;97403.16;;;13.77;100.00
11448;BME280;43755;49.736;8.734;2023-05-10T08:31:12;97408.56;;;13.76;100.00
11448;BME280;43755;49.736;8.734;2023-05-10T08:33:14;97413.63;;;13.66;100.00
11448;BME280;43755;49.736;8.734;2023-05-10T08:35:15;97412.56;;;13.69;100.00
11448;BME280;43755;49.736;8.734;2023-05-10T08:37:18;97411.53;;;13.57;100.00
11448;BME280;43755;49.736;8.734;2023-05-10T08:39:20;97413.16;;;13.60;100.00
11448;BME280;43755;49.736;8.734;2023-05-10T08:41:22;97417.88;;;13.69;100.00
11448;BME280;43755;49.736;8.734;2023-05-10T08:43:27;97408.75;;;13.73;100.00
11448;BME280;43755;49.736;8.734;2023-05-10T08:45:32;97420.84;;;13.91;100.00
11448;BME280;43755;49.736;8.734;2023-05-10T08:47:35;97422.16;;;13.98;100.00
11448;BME280;43755;49.736;8.734;2023-05-10T08:49:38;97427.97;;;14.17;100.00
11448;BME280;43755;49.736;8.734;2023-05-10T08:51:40;97418.09;;;14.32;100.00
11448;BME280;43755;49.736;8.734;2023-05-10T08:53:46;97420.53;;;14.49;100.00
11448;BME280;43755;49.736;8.734;2023-05-10T08:55:48;97425.25;;;14.58;100.00
11448;BME280;43755;49.736;8.734;2023-05-10T08:57:50;97432.28;;;14.72;100.00
11448;BME280;43755;49.736;8.734;2023-05-10T08:59:51;97431.13;;;14.89;100.00
11448;BME280;43755;49.736;8.734;2023-05-10T09:01:53;97427.09;;;14.96;100.00
11448;BME280;43755;49.736;8.734;2023-05-10T09:03:57;97428.38;;;14.90;100.00
11448;BME280;43755;49.736;8.734;2023-05-10T09:05:59;97430.47;;;15.10;100.00
11448;BME280;43755;49.736;8.734;2023-05-10T09:08:00;97430.25;;;15.26;100.00
11448;BME280;43755;49.736;8.734;2023-05-10T09:10:04;97429.38;;;15.51;100.00
11448;BME280;43755;49.736;8.734;2023-05-10T09:12:06;97446.41;;;15.74;100.00
11448;BME280;43755;49.736;8.734;2023-05-10T09:14:12;97429.59;;;15.97;100.00
11448;BME280;43755;49.736;8.734;2023-05-10T09:16:14;97435.06;;;15.95;100.00
11448;BME280;43755;49.736;8.734;2023-05-10T09:18:15;97427.81;;;16.09;100.00
11448;BME280;43755;49.736;8.734;2023-05-10T09:20:16;97439.19;;;16.00;100.00
11448;BME280;43755;49.736;8.734;2023-05-10T09:22:18;97443.13;;;16.07;100.00
11448;BME280;43755;49.736;8.734;2023-05-10T09:24:25;97439.25;;;16.34;100.00
11448;BME280;43755;49.736;8.734;2023-05-10T09:26:27;97448.31;;;16.32;100.00
11448;BME280;43755;49.736;8.734;2023-05-10T09:28:31;97443.78;;;15.97;100.00
11448;BME280;43755;49.736;8.734;2023-05-10T09:30:33;97439.66;;;16.17;100.00
11448;BME280;43755;49.736;8.734;2023-05-10T09:32:38;97441.75;;;16.25;100.00
11448;BME280;43755;49.736;8.734;2023-05-10T09:34:40;97445.94;;;16.40;100.00
11448;BME280;43755;49.736;8.734;2023-05-10T09:36:51;97449.00;;;16.70;100.00
11448;BME280;43755;49.736;8.734;2023-05-10T09:38:52;97445.09;;;16.39;100.00
11448;BME280;43755;49.736;8.734;2023-05-10T09:40:54;97447.94;;;16.02;100.00
11448;BME280;43755;49.736;8.734;2023-05-10T09:42:58;97444.81;;;16.08;100.00
11448;BME280;43755;49.736;8.734;2023-05-10T09:45:01;97446.44;;;15.97;100.00
11448;BME280;43755;49.736;8.734;2023-05-10T09:47:03;97444.81;;;16.08;100.00
11448;BME280;43755;49.736;8.734;2023-05-10T09:49:05;97448.63;;;16.16;100.00
11448;BME280;43755;49.736;8.734;2023-05-10T09:51:06;97453.75;;;16.19;100.00
11448;BME280;43755;49.736;8.734;2023-05-10T09:53:08;97450.16;;;16.08;100.00
11448;BME280;43755;49.736;8.734;2023-05-10T09:55:09;97450.88;;;16.33;100.00
11448;BME280;43755;49.736;8.734;2023-05-10T09:57:19;97455.50;;;16.08;100.00
11448;BME280;43755;49.736;8.734;2023-05-10T09:59:24;97456.47;;;16.30;100.00
11448;BME280;43755;49.736;8.734;2023-05-10T10:01:26;97451.19;;;16.65;100.00
11448;BME280;43755;49.736;8.734;2023-05-10T10:03:28;97462.13;;;16.50;100.00
11448;BME280;43755;49.736;8.734;2023-05-10T10:05:30;97457.63;;;16.26;100.00
11448;BME280;43755;49.736;8.734;2023-05-10T10:07:32;97462.84;;;16.04;100.00
11448;BME280;43755;49.736;8.734;2023-05-10T10:09:34;97459.34;;;16.04;100.00
11448;BME280;43755;49.736;8.734;2023-05-10T10:11:37;97457.63;;;16.50;100.00
11448;BME280;43755;49.736;8.734;2023-05-10T10:13:39;97460.53;;;16.47;100.00
11448;BME280;43755;49.736;8.734;2023-05-10T10:15:42;97470.25;;;16.48;100.00
11448;BME280;43755;49.736;8.734;2023-05-10T10:17:45;97462.97;;;16.50;100.00
11448;BME280;43755;49.736;8.734;2023-05-10T10:19:48;97449.59;;;16.63;100.00
11448;BME280;43755;49.736;8.734;2023-05-10T10:21:50;97455.66;;;16.65;100.00
11448;BME280;43755;49.736;8.734;2023-05-10T10:23:51;97464.31;;;16.79;100.00
11448;BME280;43755;49.736;8.734;2023-05-10T10:25:54;97465.78;;;16.25;100.00
11448;BME280;43755;49.736;8.734;2023-05-10T10:28:06;97466.19;;;16.08;100.00
11448;BME280;43755;49.736;8.734;2023-05-10T10:30:21;97469.91;;;16.05;100.00
11448;BME280;43755;49.736;8.734;2023-05-10T10:32:33;97472.28;;;15.97;100.00
11448;BME280;43755;49.736;8.734;2023-05-10T10:34:38;97475.63;;;15.75;100.00
11448;BME280;43755;49.736;8.734;2023-05-10T10:36:42;97467.69;;;16.23;100.00
11448;BME280;43755;49.736;8.734;2023-05-10T10:38:57;97475.53;;;16.85;100.00
11448;BME280;43755;49.736;8.734;2023-05-10T10:41:08;97470.19;;;16.85;100.00
11448;BME280;43755;49.736;8.734;2023-05-10T10:43:24;97474.25;;;16.66;100.00
11448;BME280;43755;49.736;8.734;2023-05-10T10:45:25;97473.03;;;16.47;100.00